Time;durP1;ratioP1;P1;durP2;ratioP2;P2;SDS_P1;SDS_P2;PMS_P1;PMS_P2;Temp;Humidity;BMP_temperature;BMP_pressure;BME280_temperature;BME280_humidity;BME280_pressure;Samples;Min_cycle;Max_cycle;Signal;HPM_P1;HPM_P2
2020/12/25 00:01:32;;;;;;;0.90;0.85;;;5.20;99.90;;;;;;5111595;28;20184;-66
2020/12/25 00:04:00;;;;;;;0.40;0.40;;;5.20;99.90;;;;;;5111739;28;20167;-65
2020/12/25 00:06:36;;;;;;;2.05;1.00;;;5.20;99.90;;;;;;5111513;28;20155;-65
2020/12/25 00:09:04;;;;;;;0.77;0.77;;;5.10;99.90;;;;;;5111387;28;20250;-66
2020/12/25 00:11:36;;;;;;;0.20;0.20;;;5.10;99.90;;;;;;5111483;28;20156;-66
2020/12/25 00:14:02;;;;;;;2.17;1.40;;;5.20;99.90;;;;;;5111406;28;20178;-66
2020/12/25 00:16:29;;;;;;;2.00;1.23;;;5.20;99.90;;;;;;5111371;28;20167;-66
2020/12/25 00:18:56;;;;;;;0.38;0.38;;;5.10;99.90;;;;;;5109864;28;20210;-66
2020/12/25 00:21:22;;;;;;;1.08;0.88;;;5.10;99.90;;;;;;5111259;28;20152;-65
2020/12/25 00:23:48;;;;;;;1.80;1.13;;;5.10;99.90;;;;;;5111189;28;20152;-65
2020/12/25 00:26:21;;;;;;;1.45;1.35;;;5.10;99.90;;;;;;5111138;28;20169;-65
2020/12/25 00:28:48;;;;;;;0.25;0.25;;;5.20;99.90;;;;;;5111025;28;20195;-66
2020/12/25 00:31:24;;;;;;;1.85;1.75;;;5.30;99.90;;;;;;5111060;28;20159;-65
2020/12/25 00:33:49;;;;;;;0.50;0.50;;;5.30;99.90;;;;;;5110996;28;20209;-66
2020/12/25 00:36:27;;;;;;;0.80;0.80;;;5.30;99.90;;;;;;5110934;28;20563;-65
2020/12/25 00:38:54;;;;;;;1.30;0.80;;;5.20;99.90;;;;;;5110349;28;20266;-65
2020/12/25 00:41:20;;;;;;;1.20;1.10;;;5.20;99.90;;;;;;5110870;28;20159;-66
2020/12/25 00:43:46;;;;;;;1.90;1.80;;;5.30;99.90;;;;;;5110700;28;20215;-66
2020/12/25 00:46:13;;;;;;;0.52;0.52;;;5.40;99.90;;;;;;5110835;28;20155;-65
2020/12/25 00:48:40;;;;;;;1.95;1.85;;;5.40;99.90;;;;;;5110725;28;20191;-65
2020/12/25 00:51:14;;;;;;;0.47;0.47;;;5.40;99.90;;;;;;5110675;28;20159;-65
2020/12/25 00:53:40;;;;;;;0.30;0.30;;;5.40;99.90;;;;;;5110652;28;20155;-65
2020/12/25 00:56:06;;;;;;;1.20;1.20;;;5.40;99.90;;;;;;5110601;28;20162;-65
2020/12/25 00:58:32;;;;;;;2.08;0.88;;;5.50;99.90;;;;;;5109104;28;20202;-65
2020/12/25 01:00:58;;;;;;;0.68;0.68;;;5.50;99.90;;;;;;5109185;28;20207;-65
2020/12/25 01:03:24;;;;;;;0.20;0.20;;;5.40;99.90;;;;;;5110420;28;20152;-66
2020/12/25 01:05:50;;;;;;;0.45;0.45;;;5.50;99.90;;;;;;5110399;28;20158;-66
2020/12/25 01:08:16;;;;;;;0.68;0.68;;;5.50;99.90;;;;;;5110288;28;20160;-65
2020/12/25 01:10:42;;;;;;;0.82;0.82;;;5.50;99.90;;;;;;5110303;28;20167;-65
2020/12/25 01:13:08;;;;;;;0.63;0.63;;;5.60;99.90;;;;;;5109096;28;20717;-66
2020/12/25 01:15:34;;;;;;;0.55;0.55;;;5.50;99.90;;;;;;5110355;28;20164;-65
2020/12/25 01:18:00;;;;;;;1.95;1.85;;;5.60;99.90;;;;;;5109942;28;20187;-66
2020/12/25 01:20:26;;;;;;;2.25;1.55;;;5.60;99.90;;;;;;5110197;28;20159;-66
2020/12/25 01:22:52;;;;;;;1.23;1.23;;;5.60;99.90;;;;;;5110140;28;20155;-66
2020/12/25 01:25:18;;;;;;;2.13;2.00;;;5.60;99.90;;;;;;5110038;28;20147;-66
2020/12/25 01:27:44;;;;;;;0.93;0.93;;;5.60;99.90;;;;;;5110025;28;20155;-66
2020/12/25 01:30:10;;;;;;;1.60;1.55;;;5.60;99.90;;;;;;5109877;28;20191;-66
2020/12/25 01:32:36;;;;;;;1.27;1.10;;;5.60;99.90;;;;;;5110062;28;20179;-66
2020/12/25 01:35:04;;;;;;;1.42;1.33;;;5.60;99.90;;;;;;5108730;28;20647;-67
2020/12/25 01:37:30;;;;;;;1.67;1.58;;;5.50;99.90;;;;;;5109780;28;20251;-66
2020/12/25 01:39:56;;;;;;;14.57;2.75;;;5.50;99.90;;;;;;5108516;28;20562;-65
2020/12/25 01:42:22;;;;;;;0.70;0.70;;;5.50;99.90;;;;;;5108256;28;20315;-64
2020/12/25 01:44:48;;;;;;;1.13;1.13;;;5.50;99.90;;;;;;5109765;28;20265;-64
2020/12/25 01:47:16;;;;;;;2.10;2.00;;;5.50;99.90;;;;;;5109746;28;20151;-65
2020/12/25 01:49:44;;;;;;;0.85;0.85;;;5.60;99.90;;;;;;5108853;28;20232;-65
2020/12/25 01:52:12;;;;;;;0.90;0.90;;;5.50;99.90;;;;;;5109730;28;20220;-65
2020/12/25 01:54:38;;;;;;;2.15;1.95;;;5.40;99.90;;;;;;5109651;28;20160;-65
2020/12/25 01:57:05;;;;;;;1.08;0.93;;;5.40;99.90;;;;;;5109555;28;20220;-65
2020/12/25 01:59:31;;;;;;;0.95;0.95;;;5.40;99.90;;;;;;5109547;28;20187;-65
2020/12/25 02:01:58;;;;;;;1.52;1.42;;;5.40;99.90;;;;;;5109705;28;20219;-66
2020/12/25 02:04:24;;;;;;;0.30;0.30;;;5.40;99.90;;;;;;5109586;28;20173;-66
2020/12/25 02:06:52;;;;;;;1.25;0.68;;;5.50;99.90;;;;;;5108184;28;20167;-65
2020/12/25 02:09:18;;;;;;;0.73;0.73;;;5.50;99.90;;;;;;5109514;28;20199;-66
2020/12/25 02:11:44;;;;;;;1.80;1.70;;;5.50;99.90;;;;;;5109530;28;20243;-66
2020/12/25 02:14:11;;;;;;;1.00;0.90;;;5.50;99.90;;;;;;5109422;28;20163;-65
2020/12/25 02:16:37;;;;;;;0.40;0.40;;;5.40;99.90;;;;;;5109452;28;20155;-66
2020/12/25 02:19:03;;;;;;;1.60;1.48;;;5.30;99.90;;;;;;5109352;28;20202;-65
2020/12/25 02:21:29;;;;;;;0.50;0.50;;;5.30;99.90;;;;;;5109411;28;20213;-66
2020/12/25 02:23:55;;;;;;;1.17;1.17;;;5.30;99.90;;;;;;5109354;28;20167;-66
2020/12/25 02:26:20;;;;;;;0.20;0.20;;;5.30;99.90;;;;;;5109367;28;20156;-65
2020/12/25 02:28:46;;;;;;;0.20;0.20;;;5.20;99.90;;;;;;5109305;28;20244;-66
2020/12/25 02:31:12;;;;;;;1.55;1.45;;;5.20;99.90;;;;;;5109091;28;20227;-65
2020/12/25 02:33:38;;;;;;;1.13;1.13;;;5.20;99.90;;;;;;5109232;28;20227;-66
2020/12/25 02:36:04;;;;;;;1.75;0.73;;;5.10;99.90;;;;;;5109284;28;20160;-65
2020/12/25 02:38:30;;;;;;;0.55;0.55;;;5.10;99.90;;;;;;5109346;28;20207;-67
2020/12/25 02:40:56;;;;;;;0.10;0.10;;;5.10;99.90;;;;;;5109263;28;20158;-65
2020/12/25 02:43:22;;;;;;;0.30;0.30;;;5.10;99.90;;;;;;5107665;28;20223;-65
2020/12/25 02:45:48;;;;;;;0.20;0.20;;;5.10;99.90;;;;;;5109122;28;20186;-66
2020/12/25 02:48:13;;;;;;;0.20;0.20;;;5.10;99.90;;;;;;5109282;28;20171;-67
2020/12/25 02:50:39;;;;;;;0.13;0.13;;;5.10;99.90;;;;;;5109185;28;20174;-66
2020/12/25 02:53:05;;;;;;;2.08;1.63;;;5.20;99.90;;;;;;5109150;28;20155;-66
2020/12/25 02:55:32;;;;;;;2.75;1.27;;;5.20;99.90;;;;;;5109085;28;20170;-66
2020/12/25 02:57:58;;;;;;;0.17;0.17;;;5.20;99.90;;;;;;5107792;28;20256;-66
2020/12/25 03:00:23;;;;;;;0.50;0.50;;;5.30;99.90;;;;;;5109417;28;20191;-66
2020/12/25 03:02:49;;;;;;;2.35;2.25;;;5.30;99.90;;;;;;5112749;28;20182;-66
2020/12/25 03:05:15;;;;;;;2.22;2.13;;;5.30;99.90;;;;;;5112936;28;20163;-66
2020/12/25 03:07:41;;;;;;;0.93;0.93;;;5.30;99.90;;;;;;5112804;28;20159;-66
2020/12/25 03:10:07;;;;;;;0.22;0.22;;;5.40;99.90;;;;;;5112554;28;20194;-66
2020/12/25 03:12:33;;;;;;;0.20;0.20;;;5.40;99.90;;;;;;5112659;28;20215;-66
2020/12/25 03:14:59;;;;;;;0.22;0.22;;;5.40;99.90;;;;;;5112611;28;20223;-65
2020/12/25 03:17:25;;;;;;;0.10;0.10;;;5.40;99.90;;;;;;5112527;28;20198;-66
2020/12/25 03:19:50;;;;;;;5.78;3.55;;;5.40;99.90;;;;;;5112418;28;20187;-66
2020/12/25 03:22:16;;;;;;;0.63;0.63;;;5.50;99.90;;;;;;5112503;28;20169;-65
2020/12/25 03:24:42;;;;;;;1.58;1.58;;;5.40;99.90;;;;;;5112326;28;20163;-66
2020/12/25 03:27:08;;;;;;;0.60;0.60;;;5.30;99.90;;;;;;5112359;28;20162;-66
2020/12/25 03:29:34;;;;;;;0.15;0.15;;;5.30;99.90;;;;;;5112156;28;20214;-65
2020/12/25 03:32:00;;;;;;;1.10;1.05;;;5.30;99.90;;;;;;5112283;28;20159;-65
2020/12/25 03:34:28;;;;;;;1.42;1.33;;;5.30;99.90;;;;;;5112384;28;20185;-65
2020/12/25 03:36:55;;;;;;;0.93;0.93;;;5.30;99.90;;;;;;5112140;28;20154;-67
2020/12/25 03:39:21;;;;;;;0.88;0.88;;;5.30;99.90;;;;;;5111979;28;20203;-66
2020/12/25 03:41:48;;;;;;;4.18;3.42;;;5.30;99.90;;;;;;5112136;28;20725;-67
2020/12/25 03:44:14;;;;;;;1.65;1.08;;;5.40;99.90;;;;;;5111847;28;20218;-66
2020/12/25 03:46:39;;;;;;;0.70;0.70;;;5.50;99.90;;;;;;5112120;28;20238;-67
2020/12/25 03:49:07;;;;;;;0.30;0.30;;;5.50;99.90;;;;;;5110439;28;20198;-67
2020/12/25 03:51:33;;;;;;;0.10;0.10;;;5.50;99.90;;;;;;5111805;28;20156;-67
2020/12/25 03:53:59;;;;;;;0.30;0.30;;;5.60;99.90;;;;;;5111858;28;20156;-67
2020/12/25 03:56:25;;;;;;;0.30;0.30;;;5.50;99.90;;;;;;5111807;28;20175;-66
2020/12/25 03:58:51;;;;;;;0.20;0.20;;;5.50;99.90;;;;;;5111605;28;20300;-67
2020/12/25 04:01:18;;;;;;;0.32;0.32;;;5.50;99.90;;;;;;5111657;28;20159;-65
2020/12/25 04:03:44;;;;;;;0.55;0.55;;;5.40;99.90;;;;;;5111629;28;20164;-65
2020/12/25 04:06:10;;;;;;;0.88;0.88;;;5.40;99.90;;;;;;5111425;28;20171;-65
2020/12/25 04:08:37;;;;;;;0.35;0.35;;;5.40;99.90;;;;;;5111310;28;20195;-65
2020/12/25 04:11:04;;;;;;;3.72;1.45;;;5.40;99.90;;;;;;5111444;28;20170;-65
2020/12/25 04:13:30;;;;;;;0.30;0.30;;;5.40;99.90;;;;;;5110460;28;20159;-65
2020/12/25 04:16:03;;;;;;;0.20;0.20;;;5.40;99.90;;;;;;5111382;28;20243;-64
2020/12/25 04:18:30;;;;;;;0.90;0.90;;;5.40;99.90;;;;;;5111064;28;20210;-65
2020/12/25 04:20:57;;;;;;;0.25;0.25;;;5.30;99.90;;;;;;5111385;28;20159;-66
2020/12/25 04:23:24;;;;;;;0.30;0.30;;;5.30;99.90;;;;;;5111307;28;20152;-66
2020/12/25 04:25:50;;;;;;;6.97;0.65;;;5.30;99.90;;;;;;5093123;28;20163;-65
2020/12/25 04:28:16;;;;;;;1.60;1.50;;;5.20;99.90;;;;;;5111028;28;20174;-65
2020/12/25 04:30:42;;;;;;;0.45;0.45;;;5.20;99.90;;;;;;5111032;28;20171;-66
2020/12/25 04:33:08;;;;;;;1.73;1.38;;;5.20;99.90;;;;;;5111007;28;20163;-65
2020/12/25 04:35:33;;;;;;;0.40;0.40;;;5.20;99.90;;;;;;5111038;28;20155;-65
2020/12/25 04:37:59;;;;;;;0.30;0.30;;;5.20;99.90;;;;;;5109584;28;20195;-65
2020/12/25 04:40:26;;;;;;;1.20;1.02;;;5.20;99.90;;;;;;5111001;28;20163;-66
2020/12/25 04:42:55;;;;;;;2.45;1.35;;;5.10;99.90;;;;;;5110639;28;20334;-65
2020/12/25 04:45:21;;;;;;;0.60;0.57;;;5.10;99.90;;;;;;5110680;28;20241;-65
2020/12/25 04:47:48;;;;;;;1.33;1.30;;;5.10;99.90;;;;;;5109245;28;20221;-67
2020/12/25 04:50:14;;;;;;;0.75;0.75;;;5.10;99.90;;;;;;5110622;28;20191;-66
2020/12/25 04:52:40;;;;;;;0.10;0.10;;;5.10;99.90;;;;;;5110705;28;20176;-67
2020/12/25 04:55:06;;;;;;;0.75;0.75;;;5.10;99.90;;;;;;5110669;28;20159;-66
2020/12/25 04:57:32;;;;;;;0.17;0.17;;;5.10;99.90;;;;;;5109100;28;20229;-66
2020/12/25 04:59:58;;;;;;;0.10;0.10;;;5.10;99.90;;;;;;5110512;28;20191;-66
2020/12/25 05:02:24;;;;;;;0.38;0.38;;;5.10;99.90;;;;;;5110726;28;20155;-67
2020/12/25 05:04:50;;;;;;;0.30;0.30;;;5.10;99.90;;;;;;5110361;28;20183;-66
2020/12/25 05:07:17;;;;;;;0.70;0.70;;;5.10;99.90;;;;;;5110415;28;20741;-67
2020/12/25 05:09:44;;;;;;;0.30;0.30;;;5.10;99.90;;;;;;5110264;28;20191;-67
2020/12/25 05:12:12;;;;;;;0.50;0.50;;;5.10;99.90;;;;;;5110260;28;20181;-67
2020/12/25 05:14:42;;;;;;;0.32;0.32;;;5.10;99.90;;;;;;5110234;28;20163;-67
2020/12/25 05:17:12;;;;;;;0.88;0.88;;;5.10;99.90;;;;;;5110076;28;20167;-67
2020/12/25 05:19:40;;;;;;;0.30;0.30;;;5.20;99.90;;;;;;5110020;28;20191;-67
2020/12/25 05:22:07;;;;;;;0.57;0.57;;;5.20;99.90;;;;;;5108896;28;20155;-67
2020/12/25 05:24:39;;;;;;;0.10;0.10;;;5.20;99.90;;;;;;5110032;28;20187;-67
2020/12/25 05:27:14;;;;;;;0.30;0.30;;;5.10;99.90;;;;;;5109969;28;20155;-66
2020/12/25 05:29:41;;;;;;;1.17;1.17;;;5.00;99.90;;;;;;5109892;28;20245;-66
2020/12/25 05:32:07;;;;;;;0.68;0.68;;;5.00;99.90;;;;;;5110067;28;20163;-67
2020/12/25 05:34:35;;;;;;;0.20;0.20;;;5.00;99.90;;;;;;5108602;28;20163;-67
2020/12/25 05:37:03;;;;;;;0.10;0.10;;;5.00;99.90;;;;;;5108623;28;20198;-66
2020/12/25 05:39:38;;;;;;;0.43;0.43;;;5.00;99.90;;;;;;5108431;28;20224;-66
2020/12/25 05:42:08;;;;;;;0.28;0.28;;;5.00;99.90;;;;;;5109573;28;20159;-66
2020/12/25 05:44:41;;;;;;;0.63;0.57;;;5.00;99.90;;;;;;5108524;28;20167;-66
2020/12/25 05:47:08;;;;;;;0.80;0.80;;;5.00;99.90;;;;;;5108464;28;20167;-65
2020/12/25 05:49:37;;;;;;;0.75;0.75;;;5.00;99.90;;;;;;5109527;28;20191;-65
2020/12/25 05:52:02;;;;;;;1.00;1.00;;;5.10;99.90;;;;;;5109672;28;20167;-66
2020/12/25 05:54:28;;;;;;;0.57;0.57;;;5.10;99.90;;;;;;5109599;28;20163;-66
2020/12/25 05:56:56;;;;;;;0.22;0.22;;;5.20;99.90;;;;;;5109760;28;20159;-65
2020/12/25 05:59:28;;;;;;;0.93;0.57;;;5.10;99.90;;;;;;5108061;28;20207;-65
2020/12/25 06:02:05;;;;;;;0.73;0.73;;;5.10;99.90;;;;;;5109608;28;20151;-64
2020/12/25 06:04:32;;;;;;;0.10;0.10;;;5.00;99.90;;;;;;5108223;28;20192;-66
2020/12/25 06:06:59;;;;;;;0.52;0.52;;;5.00;99.90;;;;;;5109495;28;20159;-66
2020/12/25 06:09:30;;;;;;;0.30;0.30;;;5.00;99.90;;;;;;5109508;28;20214;-65
2020/12/25 06:11:57;;;;;;;0.20;0.20;;;5.00;99.90;;;;;;5109416;28;20165;-66
2020/12/25 06:14:23;;;;;;;0.10;0.10;;;4.90;99.90;;;;;;5109570;28;20155;-66
2020/12/25 06:17:12;;;;;;;0.57;0.57;;;5.00;99.90;;;;;;5109432;28;20526;-66
2020/12/25 06:19:57;;;;;;;0.10;0.10;;;4.90;99.90;;;;;;5109264;28;20199;-67
2020/12/25 06:22:30;;;;;;;0.52;0.52;;;4.90;99.90;;;;;;5109388;28;20147;-66
2020/12/25 06:25:00;;;;;;;0.55;0.55;;;4.90;99.90;;;;;;5109376;28;20159;-66
2020/12/25 06:27:27;;;;;;;0.20;0.20;;;4.90;99.90;;;;;;5107916;28;20167;-66
2020/12/25 06:29:54;;;;;;;0.82;0.82;;;4.90;99.90;;;;;;5107918;28;20277;-65
2020/12/25 06:32:23;;;;;;;5.00;0.97;;;4.80;99.90;;;;;;5107798;28;20393;-66
2020/12/25 06:34:50;;;;;;;1.13;1.05;;;4.80;99.90;;;;;;5107367;28;20195;-66
2020/12/25 06:37:18;;;;;;;0.90;0.90;;;4.80;99.90;;;;;;5112093;28;20234;-66
2020/12/25 06:39:55;;;;;;;0.30;0.30;;;4.80;99.90;;;;;;5113113;28;20156;-66
2020/12/25 06:42:32;;;;;;;0.20;0.20;;;4.80;99.90;;;;;;5113020;28;20278;-66
2020/12/25 06:45:01;;;;;;;0.57;0.57;;;4.80;99.90;;;;;;5113087;28;20163;-66
2020/12/25 06:47:34;;;;;;;0.35;0.35;;;4.80;99.90;;;;;;5113099;28;20160;-66
2020/12/25 06:50:12;;;;;;;0.75;0.40;;;4.80;99.90;;;;;;5113118;28;20248;-66
2020/12/25 06:52:54;;;;;;;0.20;0.20;;;4.80;99.90;;;;;;5112993;28;20244;-66
2020/12/25 06:55:40;;;;;;;0.70;0.70;;;4.90;99.90;;;;;;5112091;28;20388;-66
2020/12/25 06:58:06;;;;;;;2.65;1.65;;;4.90;99.90;;;;;;5112824;28;20183;-65
2020/12/25 07:00:32;;;;;;;0.98;0.70;;;4.90;99.90;;;;;;5113004;28;20152;-66
2020/12/25 07:03:12;;;;;;;0.90;0.90;;;5.00;99.90;;;;;;5112773;28;20206;-66
2020/12/25 07:05:49;;;;;;;1.75;1.65;;;5.00;99.90;;;;;;5112680;28;20518;-66
2020/12/25 07:08:39;;;;;;;0.32;0.32;;;5.10;99.90;;;;;;5112845;28;20612;-66
2020/12/25 07:11:09;;;;;;;0.45;0.45;;;5.10;99.90;;;;;;5112651;28;20159;-65
2020/12/25 07:13:37;;;;;;;0.20;0.20;;;5.00;99.90;;;;;;5112553;28;20195;-66
2020/12/25 07:16:04;;;;;;;0.88;0.88;;;4.90;99.90;;;;;;5112536;28;20194;-66
2020/12/25 07:18:31;;;;;;;0.77;0.77;;;4.90;99.90;;;;;;5112487;28;20233;-66
2020/12/25 07:20:59;;;;;;;0.55;0.55;;;4.80;99.90;;;;;;5111199;28;20161;-66
2020/12/25 07:23:26;;;;;;;0.10;0.10;;;4.90;99.90;;;;;;5111003;28;20206;-65
2020/12/25 07:25:57;;;;;;;0.77;0.77;;;4.90;99.90;;;;;;5112317;28;20152;-66
2020/12/25 07:28:27;;;;;;;0.25;0.25;;;5.00;99.90;;;;;;5112370;28;20164;-66
2020/12/25 07:30:57;;;;;;;0.10;0.10;;;5.10;99.90;;;;;;5112363;28;20201;-66
2020/12/25 07:33:24;;;;;;;0.10;0.10;;;5.10;99.90;;;;;;5112162;28;20274;-66
2020/12/25 07:35:50;;;;;;;0.28;0.28;;;5.10;99.90;;;;;;5112184;28;20178;-66
2020/12/25 07:38:16;;;;;;;0.20;0.20;;;5.00;99.90;;;;;;5112150;28;20191;-66
2020/12/25 07:40:43;;;;;;;1.35;0.77;;;5.00;99.90;;;;;;5112070;28;20148;-66
2020/12/25 07:43:10;;;;;;;0.52;0.52;;;5.10;99.90;;;;;;5111709;28;20264;-66
2020/12/25 07:45:37;;;;;;;1.17;0.52;;;5.20;99.90;;;;;;5111991;28;20164;-66
2020/12/25 07:48:05;;;;;;;1.98;1.88;;;5.20;99.90;;;;;;5110594;28;20166;-67
2020/12/25 07:50:43;;;;;;;0.32;0.32;;;5.20;99.90;;;;;;5110506;28;20167;-65
2020/12/25 07:53:12;;;;;;;0.20;0.20;;;5.20;99.90;;;;;;5111767;28;20191;-66
2020/12/25 07:55:39;;;;;;;0.43;0.43;;;5.20;99.90;;;;;;5110671;28;20163;-66
2020/12/25 07:58:05;;;;;;;0.95;0.32;;;5.20;99.90;;;;;;5111798;28;20203;-66
2020/12/25 08:00:32;;;;;;;0.35;0.35;;;5.20;99.90;;;;;;5111725;28;20151;-66
2020/12/25 08:02:59;;;;;;;0.52;0.52;;;5.20;99.90;;;;;;5111580;28;20231;-66
2020/12/25 08:05:30;;;;;;;0.95;0.60;;;5.20;99.90;;;;;;5111691;28;20159;-66
2020/12/25 08:07:57;;;;;;;0.38;0.38;;;5.20;99.90;;;;;;5111564;28;20158;-66
2020/12/25 08:10:24;;;;;;;0.20;0.20;;;5.10;99.90;;;;;;5111490;28;20219;-65
2020/12/25 08:12:54;;;;;;;0.20;0.20;;;5.10;99.90;;;;;;5111376;28;20282;-66
2020/12/25 08:15:20;;;;;;;0.10;0.10;;;5.20;99.90;;;;;;5111398;28;20197;-66
2020/12/25 08:17:53;;;;;;;0.43;0.43;;;5.20;99.90;;;;;;5111285;28;20233;-66
2020/12/25 08:20:22;;;;;;;0.22;0.22;;;5.20;99.90;;;;;;5111279;28;20225;-65
2020/12/25 08:22:48;;;;;;;1.40;1.40;;;5.20;99.90;;;;;;5111191;28;20680;-66
2020/12/25 08:25:14;;;;;;;0.38;0.38;;;5.20;99.90;;;;;;5111147;28;20160;-65
2020/12/25 08:27:41;;;;;;;1.85;1.75;;;5.20;99.90;;;;;;5111067;28;20182;-66
2020/12/25 08:30:08;;;;;;;1.08;1.02;;;5.20;99.90;;;;;;5109846;28;20175;-65
2020/12/25 08:32:34;;;;;;;0.10;0.10;;;5.20;99.90;;;;;;5111008;28;20202;-66
2020/12/25 08:35:17;;;;;;;1.23;0.85;;;5.20;99.90;;;;;;5111055;28;20167;-66
2020/12/25 08:38:02;;;;;;;0.63;0.57;;;5.30;99.90;;;;;;5110850;28;20183;-66
2020/12/25 08:40:37;;;;;;;0.25;0.25;;;5.30;99.90;;;;;;5110789;28;20210;-66
2020/12/25 08:43:11;;;;;;;0.17;0.17;;;5.30;99.90;;;;;;5109277;28;20228;-66
2020/12/25 08:45:53;;;;;;;0.32;0.32;;;5.30;99.90;;;;;;5110795;28;20151;-65
2020/12/25 08:48:20;;;;;;;0.20;0.20;;;5.30;99.90;;;;;;5110582;28;20201;-66
2020/12/25 08:50:46;;;;;;;0.20;0.20;;;5.30;99.90;;;;;;5110634;28;20159;-66
2020/12/25 08:53:19;;;;;;;3.72;2.15;;;5.30;99.90;;;;;;5110526;28;20263;-66
2020/12/25 08:55:47;;;;;;;0.55;0.55;;;5.30;99.90;;;;;;5110671;28;20215;-66
2020/12/25 08:58:19;;;;;;;0.52;0.52;;;5.40;99.90;;;;;;5110071;28;20183;-66
2020/12/25 09:01:03;;;;;;;0.40;0.40;;;5.50;99.90;;;;;;5110426;28;20211;-65
2020/12/25 09:03:42;;;;;;;0.45;0.45;;;5.60;99.90;;;;;;5110347;28;20183;-66
2020/12/25 09:06:11;;;;;;;0.20;0.20;;;5.90;99.90;;;;;;5110475;28;20174;-66
2020/12/25 09:08:38;;;;;;;0.85;0.85;;;6.00;99.90;;;;;;5110362;28;20165;-65
2020/12/25 09:11:10;;;;;;;0.32;0.32;;;6.20;99.90;;;;;;5110223;28;20160;-66
2020/12/25 09:13:37;;;;;;;0.47;0.47;;;6.20;99.90;;;;;;5110266;28;20222;-66
2020/12/25 09:16:04;;;;;;;0.50;0.50;;;6.30;99.90;;;;;;5110141;28;20219;-66
2020/12/25 09:18:31;;;;;;;0.20;0.20;;;6.30;99.90;;;;;;5108778;28;20199;-65
2020/12/25 09:20:56;;;;;;;0.52;0.52;;;6.30;99.90;;;;;;5110082;28;20647;-66
2020/12/25 09:23:22;;;;;;;2.15;2.05;;;6.40;99.90;;;;;;5110063;28;20191;-66
2020/12/25 09:25:48;;;;;;;0.68;0.68;;;6.60;99.90;;;;;;5110107;28;20209;-66
2020/12/25 09:28:14;;;;;;;0.15;0.15;;;6.70;99.90;;;;;;5109984;28;20185;-66
2020/12/25 09:30:40;;;;;;;0.35;0.35;;;6.60;99.90;;;;;;5110026;28;20171;-66
2020/12/25 09:33:06;;;;;;;0.20;0.20;;;6.70;99.90;;;;;;5109890;28;20259;-66
2020/12/25 09:35:32;;;;;;;0.28;0.28;;;6.90;99.90;;;;;;5109844;28;20163;-66
2020/12/25 09:37:58;;;;;;;0.73;0.73;;;6.90;99.90;;;;;;5109848;28;20267;-66
2020/12/25 09:40:23;;;;;;;1.67;1.05;;;6.90;99.90;;;;;;5108447;28;20212;-66
2020/12/25 09:42:49;;;;;;;0.80;0.55;;;6.80;99.90;;;;;;5109393;28;20223;-66
2020/12/25 09:45:15;;;;;;;0.10;0.10;;;6.70;99.90;;;;;;5108356;28;20182;-65
2020/12/25 09:47:41;;;;;;;0.30;0.30;;;6.70;99.90;;;;;;5109738;28;20159;-66
2020/12/25 09:50:07;;;;;;;0.10;0.10;;;6.50;99.90;;;;;;5109543;28;20155;-65
2020/12/25 09:52:36;;;;;;;0.52;0.52;;;6.50;99.90;;;;;;5109677;28;20218;-66
2020/12/25 09:55:03;;;;;;;0.82;0.82;;;6.40;99.90;;;;;;5109631;28;20174;-65
2020/12/25 09:57:29;;;;;;;0.10;0.10;;;6.40;99.90;;;;;;5109462;28;20209;-66
2020/12/25 09:59:56;;;;;;;0.47;0.47;;;6.40;99.90;;;;;;5109639;28;20183;-66
2020/12/25 10:02:22;;;;;;;0.30;0.30;;;6.50;99.90;;;;;;5109474;28;20213;-65
2020/12/25 10:04:49;;;;;;;0.93;0.75;;;6.60;99.90;;;;;;5109341;28;20151;-66
2020/12/25 10:07:15;;;;;;;0.43;0.43;;;6.60;99.90;;;;;;5109495;28;20223;-65
2020/12/25 10:09:41;;;;;;;0.10;0.10;;;6.60;99.90;;;;;;5110056;28;20155;-66
2020/12/25 10:12:06;;;;;;;0.20;0.20;;;6.60;99.90;;;;;;5115801;28;20221;-65
2020/12/25 10:14:32;;;;;;;0.08;0.08;;;6.60;99.90;;;;;;5116204;28;20183;-66
2020/12/25 10:16:58;;;;;;;0.60;0.60;;;6.60;99.90;;;;;;5114863;28;20175;-65
2020/12/25 10:19:24;;;;;;;1.02;0.82;;;6.60;99.90;;;;;;5116042;28;20195;-66
2020/12/25 10:21:50;;;;;;;0.20;0.20;;;6.60;99.90;;;;;;5116133;28;20166;-65
2020/12/25 10:24:17;;;;;;;0.10;0.10;;;6.70;99.90;;;;;;5116188;28;20151;-66
2020/12/25 10:26:48;;;;;;;0.10;0.10;;;6.60;99.90;;;;;;5114739;28;20171;-66
2020/12/25 10:29:14;;;;;;;0.70;0.45;;;6.70;99.90;;;;;;5116037;28;20167;-66
2020/12/25 10:31:40;;;;;;;0.10;0.10;;;6.80;99.90;;;;;;5116022;28;20239;-66
2020/12/25 10:34:05;;;;;;;0.10;0.10;;;6.90;99.90;;;;;;5116152;28;20171;-66
2020/12/25 10:36:31;;;;;;;0.25;0.25;;;6.90;99.90;;;;;;5115895;28;20218;-66
2020/12/25 10:38:57;;;;;;;0.00;0.00;;;7.10;99.90;;;;;;5116066;28;20200;-66
2020/12/25 10:41:30;;;;;;;0.20;0.20;;;7.20;99.90;;;;;;5115923;28;20175;-66
2020/12/25 10:43:57;;;;;;;0.10;0.10;;;7.30;99.90;;;;;;5115599;28;20215;-66
2020/12/25 10:46:23;;;;;;;0.10;0.10;;;7.30;99.90;;;;;;5115929;28;20158;-65
2020/12/25 10:48:49;;;;;;;0.22;0.22;;;7.20;99.90;;;;;;5115832;28;20164;-66
2020/12/25 10:51:15;;;;;;;0.10;0.10;;;7.10;99.90;;;;;;5115870;28;20673;-66
2020/12/25 10:53:41;;;;;;;0.10;0.10;;;7.20;99.90;;;;;;5115745;28;20679;-66
2020/12/25 10:56:08;;;;;;;0.10;0.10;;;7.10;99.90;;;;;;5115938;28;20155;-65
2020/12/25 10:58:34;;;;;;;0.10;0.10;;;7.10;99.90;;;;;;5115678;28;20221;-66
2020/12/25 11:01:00;;;;;;;0.10;0.10;;;7.00;99.90;;;;;;5115769;28;20147;-65
2020/12/25 11:03:26;;;;;;;1.00;1.00;;;7.00;99.90;;;;;;5115836;28;20255;-65
2020/12/25 11:05:52;;;;;;;0.15;0.15;;;6.90;99.90;;;;;;5114453;28;20167;-66
2020/12/25 11:08:18;;;;;;;0.00;0.00;;;6.90;99.90;;;;;;5115880;28;20246;-66
2020/12/25 11:10:44;;;;;;;0.10;0.10;;;6.80;99.90;;;;;;5115640;28;20223;-65
2020/12/25 11:13:11;;;;;;;0.15;0.15;;;6.70;99.90;;;;;;5115575;28;20214;-66
2020/12/25 11:15:41;;;;;;;1.10;0.73;;;6.70;99.90;;;;;;5115760;28;20175;-65
2020/12/25 11:18:07;;;;;;;0.20;0.20;;;6.60;99.90;;;;;;5115589;28;20198;-65
2020/12/25 11:20:33;;;;;;;0.10;0.10;;;6.60;99.90;;;;;;5115467;28;20247;-65
2020/12/25 11:23:00;;;;;;;1.08;0.65;;;6.60;99.90;;;;;;5112693;28;20283;-66
2020/12/25 11:25:26;;;;;;;0.10;0.10;;;6.70;99.90;;;;;;5112444;28;20171;-66
2020/12/25 11:27:51;;;;;;;0.50;0.40;;;6.70;99.90;;;;;;5112255;28;20175;-65
2020/12/25 11:30:17;;;;;;;0.10;0.10;;;6.70;99.90;;;;;;5112274;28;20246;-66
2020/12/25 11:32:43;;;;;;;0.40;0.40;;;6.80;99.90;;;;;;5112164;28;20278;-66
2020/12/25 11:35:09;;;;;;;0.20;0.20;;;6.80;99.90;;;;;;5112173;28;20164;-65
2020/12/25 11:37:35;;;;;;;0.10;0.10;;;6.60;99.90;;;;;;5110783;28;20175;-66
2020/12/25 11:40:00;;;;;;;0.10;0.10;;;6.40;99.90;;;;;;5110759;28;20168;-66
2020/12/25 11:42:26;;;;;;;0.10;0.10;;;6.30;99.90;;;;;;5110490;28;20275;-65
2020/12/25 11:44:52;;;;;;;0.15;0.15;;;6.20;99.90;;;;;;5111941;28;20201;-65
2020/12/25 11:47:18;;;;;;;0.10;0.10;;;6.10;99.90;;;;;;5111893;28;20187;-65
2020/12/25 11:49:44;;;;;;;0.20;0.20;;;6.00;99.90;;;;;;5111703;28;20163;-65
2020/12/25 11:52:09;;;;;;;0.00;0.00;;;5.90;99.90;;;;;;5111828;28;20244;-65
2020/12/25 11:54:35;;;;;;;0.10;0.10;;;5.90;99.90;;;;;;5111637;28;20179;-65
2020/12/25 11:57:01;;;;;;;0.10;0.10;;;5.80;99.90;;;;;;5111716;28;20158;-66
2020/12/25 11:59:27;;;;;;;0.10;0.10;;;5.80;99.90;;;;;;5111591;28;20195;-66
2020/12/25 12:01:53;;;;;;;0.10;0.10;;;5.70;99.90;;;;;;5111627;28;20191;-66
2020/12/25 12:04:19;;;;;;;0.10;0.10;;;5.70;99.90;;;;;;5111641;28;20219;-66
2020/12/25 12:06:44;;;;;;;0.25;0.25;;;5.70;99.90;;;;;;5110087;28;20225;-66
2020/12/25 12:09:10;;;;;;;0.10;0.10;;;5.60;99.90;;;;;;5111725;28;20167;-66
2020/12/25 12:11:43;;;;;;;0.10;0.10;;;5.50;99.90;;;;;;5111379;28;20172;-66
2020/12/25 12:14:09;;;;;;;0.10;0.10;;;5.60;99.90;;;;;;5111384;28;20171;-66
2020/12/25 12:16:35;;;;;;;0.10;0.10;;;5.60;99.90;;;;;;5111418;28;20247;-66
2020/12/25 12:19:01;;;;;;;0.10;0.10;;;5.60;99.90;;;;;;5111233;28;20183;-65
2020/12/25 12:21:27;;;;;;;0.13;0.13;;;5.50;99.90;;;;;;5111377;28;20198;-66
2020/12/25 12:23:53;;;;;;;0.10;0.10;;;5.50;99.90;;;;;;5111263;28;20187;-66
2020/12/25 12:26:19;;;;;;;0.17;0.17;;;5.50;99.90;;;;;;5109858;28;20191;-66
2020/12/25 12:28:45;;;;;;;0.10;0.10;;;5.60;99.90;;;;;;5111131;28;20166;-66
2020/12/25 12:31:11;;;;;;;0.10;0.10;;;5.60;99.90;;;;;;5110963;28;20167;-65
2020/12/25 12:33:38;;;;;;;0.20;0.20;;;5.70;99.90;;;;;;5110391;28;20194;-65
2020/12/25 12:36:04;;;;;;;0.75;0.57;;;5.70;99.90;;;;;;5110978;28;20155;-65
2020/12/25 12:38:31;;;;;;;0.10;0.10;;;5.70;99.90;;;;;;5110716;28;20191;-65
2020/12/25 12:40:56;;;;;;;0.10;0.10;;;5.90;99.90;;;;;;5110956;28;20155;-65
2020/12/25 12:43:22;;;;;;;0.10;0.10;;;5.90;99.90;;;;;;5109098;28;20226;-66
2020/12/25 12:45:48;;;;;;;0.10;0.10;;;5.90;99.90;;;;;;5110804;28;20157;-66
2020/12/25 12:48:14;;;;;;;0.85;0.57;;;6.00;99.90;;;;;;5110744;28;20159;-65
2020/12/25 12:50:40;;;;;;;0.10;0.10;;;5.90;99.90;;;;;;5110572;28;20167;-65
2020/12/25 12:53:06;;;;;;;0.20;0.20;;;5.90;99.90;;;;;;5110566;28;20187;-65
2020/12/25 12:55:32;;;;;;;0.10;0.10;;;6.00;99.90;;;;;;5110688;28;20215;-66
2020/12/25 12:57:58;;;;;;;0.25;0.25;;;5.90;99.90;;;;;;5110468;28;20191;-65
2020/12/25 13:00:24;;;;;;;0.17;0.17;;;5.80;99.90;;;;;;5110563;28;20631;-66